Time;durP1;ratioP1;P1;durP2;ratioP2;P2;SDS_P1;SDS_P2;PMS_P1;PMS_P2;Temp;Humidity;BMP_temperature;BMP_pressure;BME280_temperature;BME280_humidity;BME280_pressure;Samples;Min_cycle;Max_cycle;Signal;HPM_P1;HPM_P2
2023/01/27 00:00:55;;;;;;;7.32;5.80;;;;;;;;;;4954792;29;20591;-67
2023/01/27 00:03:22;;;;;;;6.82;5.93;;;;;;;;;;4956611;29;20200;-67
2023/01/27 00:05:50;;;;;;;10.05;7.45;;;;;;;;;;4959045;29;20220;-66
2023/01/27 00:08:18;;;;;;;8.00;6.50;;;;;;;;;;4957075;29;20212;-66
2023/01/27 00:10:45;;;;;;;10.30;6.22;;;;;;;;;;4955077;29;20227;-66
2023/01/27 00:13:26;;;;;;;7.22;5.43;;;;;;;;;;4955151;29;20263;-66
2023/01/27 00:15:54;;;;;;;6.75;5.68;;;;;;;;;;4955018;29;20588;-66
2023/01/27 00:18:22;;;;;;;9.68;6.20;;;;;;;;;;4955782;28;20208;-66
2023/01/27 00:26:20;;;;;;;9.57;5.90;;;;;;;;;;4958200;29;20183;-66
2023/01/27 00:28:48;;;;;;;8.75;5.78;;;;;;;;;;4958186;29;20208;-66
2023/01/27 00:34:07;;;;;;;6.00;5.35;;;;;;;;;;4957917;29;20316;-67
2023/01/27 00:36:36;;;;;;;6.18;5.35;;;;;;;;;;4958088;29;20192;-67
2023/01/27 00:39:03;;;;;;;7.80;5.85;;;;;;;;;;5027078;23;20721;-70
2023/01/27 00:41:32;;;;;;;6.60;4.70;;;;;;;;;;4977488;28;20207;-70
2023/01/27 00:43:59;;;;;;;6.80;5.00;;;;;;;;;;4977513;28;20203;-70
2023/01/27 00:46:26;;;;;;;7.18;5.30;;;;;;;;;;4977456;28;20210;-71
2023/01/27 00:48:53;;;;;;;6.85;5.50;;;;;;;;;;4976950;28;20717;-71
2023/01/27 00:51:21;;;;;;;5.47;4.97;;;;;;;;;;4977404;28;20203;-71
2023/01/27 00:53:49;;;;;;;6.00;5.40;;;;;;;;;;4977384;28;20204;-71
2023/01/27 00:56:16;;;;;;;7.22;5.38;;;;;;;;;;4977463;28;20204;-71
2023/01/27 00:58:43;;;;;;;5.97;4.68;;;;;;;;;;4977149;28;20224;-70
2023/01/27 01:01:11;;;;;;;6.28;4.70;;;;;;;;;;4976981;28;20206;-70
2023/01/27 01:03:38;;;;;;;6.57;4.88;;;;;;;;;;4977133;28;20606;-70
2023/01/27 01:06:07;;;;;;;6.82;5.35;;;;;;;;;;4976753;28;20686;-70
2023/01/27 01:08:35;;;;;;;6.32;5.13;;;;;;;;;;4977027;28;20228;-69
2023/01/27 01:11:04;;;;;;;5.93;4.72;;;;;;;;;;4976775;28;20586;-71
2023/01/27 01:13:31;;;;;;;5.75;4.60;;;;;;;;;;4976874;28;20230;-70
2023/01/27 01:15:58;;;;;;;4.75;4.35;;;;;;;;;;4976844;28;20207;-70
2023/01/27 01:18:25;;;;;;;4.63;4.20;;;;;;;;;;4976847;28;20219;-70
2023/01/27 01:20:52;;;;;;;6.10;4.03;;;;;;;;;;4976576;28;20558;-69
2023/01/27 01:23:19;;;;;;;4.90;4.32;;;;;;;;;;4976787;28;20207;-70
2023/01/27 01:25:53;;;;;;;4.95;4.47;;;;;;;;;;4976828;28;20207;-70
2023/01/27 01:28:22;;;;;;;4.82;4.32;;;;;;;;;;4976668;28;20224;-70
2023/01/27 01:30:49;;;;;;;4.85;4.40;;;;;;;;;;4976247;28;20752;-70
2023/01/27 01:33:16;;;;;;;5.53;5.03;;;;;;;;;;4976693;28;20199;-71
2023/01/27 01:35:43;;;;;;;7.80;5.05;;;;;;;;;;4976888;28;20199;-71
2023/01/27 01:38:10;;;;;;;5.47;4.75;;;;;;;;;;4976242;28;20231;-71
2023/01/27 01:40:40;;;;;;;6.80;4.57;;;;;;;;;;4976226;28;20212;-70
2023/01/27 01:43:12;;;;;;;5.15;4.15;;;;;;;;;;4976466;28;20207;-71
2023/01/27 01:45:56;;;;;;;5.50;4.50;;;;;;;;;;4976401;28;20192;-71
2023/01/27 01:48:27;;;;;;;4.63;4.22;;;;;;;;;;4975974;28;20644;-70
2023/01/27 01:50:58;;;;;;;4.57;4.05;;;;;;;;;;4976911;28;20214;-71
2023/01/27 01:53:28;;;;;;;5.38;4.07;;;;;;;;;;4977520;28;20222;-71
2023/01/27 01:55:56;;;;;;;4.80;4.40;;;;;;;;;;4976824;28;20203;-71
2023/01/27 01:58:26;;;;;;;7.05;4.57;;;;;;;;;;4976366;28;20227;-71
2023/01/27 02:00:53;;;;;;;6.10;5.15;;;;;;;;;;4975819;28;20562;-71
2023/01/27 02:03:21;;;;;;;6.72;4.82;;;;;;;;;;4976496;28;20550;-70
2023/01/27 02:05:49;;;;;;;8.75;5.82;;;;;;;;;;4975984;28;20214;-69
2023/01/27 02:08:18;;;;;;;5.47;4.85;;;;;;;;;;4976003;28;20219;-69
2023/01/27 02:10:45;;;;;;;7.05;4.72;;;;;;;;;;4975534;28;20665;-69
2023/01/27 02:13:12;;;;;;;7.10;5.13;;;;;;;;;;4975779;28;20204;-70
2023/01/27 02:15:40;;;;;;;4.45;4.05;;;;;;;;;;4975778;28;20211;-69
2023/01/27 02:18:08;;;;;;;5.60;4.85;;;;;;;;;;4975673;28;20230;-69
2023/01/27 02:20:37;;;;;;;7.10;5.15;;;;;;;;;;4975455;28;20199;-70
2023/01/27 02:23:12;;;;;;;6.38;4.80;;;;;;;;;;4975511;28;20207;-70
2023/01/27 02:25:45;;;;;;;7.30;4.60;;;;;;;;;;4975685;28;20195;-70
2023/01/27 02:28:12;;;;;;;6.95;4.93;;;;;;;;;;4975669;28;20239;-72
2023/01/27 02:30:39;;;;;;;3.95;3.60;;;;;;;;;;4975459;28;20223;-71
2023/01/27 02:33:10;;;;;;;6.32;4.20;;;;;;;;;;4975342;28;20207;-70
2023/01/27 02:35:38;;;;;;;5.75;4.30;;;;;;;;;;4975683;28;20192;-70
2023/01/27 02:38:06;;;;;;;6.07;4.38;;;;;;;;;;4975307;28;20234;-71
2023/01/27 02:40:33;;;;;;;4.13;3.78;;;;;;;;;;4975363;28;20199;-70
2023/01/27 02:43:04;;;;;;;5.40;3.90;;;;;;;;;;4975585;28;20207;-70
2023/01/27 02:45:31;;;;;;;3.85;3.55;;;;;;;;;;4975479;28;20187;-70
2023/01/27 02:47:58;;;;;;;5.75;4.97;;;;;;;;;;4975346;28;20230;-69
2023/01/27 02:50:25;;;;;;;6.00;4.95;;;;;;;;;;4974924;28;20694;-70
2023/01/27 02:52:52;;;;;;;6.68;5.05;;;;;;;;;;4975152;28;20218;-70
2023/01/27 02:55:19;;;;;;;7.05;5.32;;;;;;;;;;4975244;28;20204;-71
2023/01/27 02:57:46;;;;;;;8.57;6.32;;;;;;;;;;4974733;28;20638;-70
2023/01/27 03:00:15;;;;;;;8.38;6.65;;;;;;;;;;4974795;28;20678;-70
2023/01/27 03:02:42;;;;;;;6.40;5.55;;;;;;;;;;4975096;28;20231;-70
2023/01/27 03:05:09;;;;;;;7.68;5.40;;;;;;;;;;4974944;28;20607;-70
2023/01/27 03:07:36;;;;;;;6.22;5.10;;;;;;;;;;4974932;28;20223;-70
2023/01/27 03:10:03;;;;;;;7.60;5.85;;;;;;;;;;4974860;28;20219;-69
2023/01/27 03:12:30;;;;;;;9.93;6.78;;;;;;;;;;4974788;28;20207;-69
2023/01/27 03:20:28;;;;;;;6.40;5.50;;;;;;;;;;4974977;28;20202;-71
2023/01/27 03:22:55;;;;;;;9.93;6.47;;;;;;;;;;4974788;28;20215;-70
2023/01/27 03:25:22;;;;;;;8.70;5.90;;;;;;;;;;4974496;28;20697;-71
2023/01/27 03:27:49;;;;;;;8.68;5.95;;;;;;;;;;4974691;28;20231;-70
2023/01/27 03:30:16;;;;;;;9.57;5.72;;;;;;;;;;4974628;28;20230;-70
2023/01/27 03:32:46;;;;;;;7.10;5.32;;;;;;;;;;4974788;28;20207;-70
2023/01/27 03:35:13;;;;;;;10.68;6.38;;;;;;;;;;4974714;28;20633;-70
2023/01/27 03:48:41;;;;;;;9.38;6.07;;;;;;;;;;4974484;28;20588;-68
2023/01/27 03:51:09;;;;;;;10.43;7.25;;;;;;;;;;4974783;28;20282;-68
2023/01/27 03:53:36;;;;;;;12.05;7.43;;;;;;;;;;4975899;28;20208;-68
2023/01/27 03:56:04;;;;;;;11.52;7.22;;;;;;;;;;4978475;28;20214;-69
2023/01/27 03:58:32;;;;;;;10.07;6.85;;;;;;;;;;4978452;28;20234;-68
2023/01/27 04:01:00;;;;;;;11.82;8.57;;;;;;;;;;4978370;28;20210;-69
2023/01/27 04:09:01;;;;;;;24.13;12.60;;;;;;;;;;4978139;28;20221;-68
2023/01/27 04:14:13;;;;;;;9.55;6.82;;;;;;;;;;4977756;28;20635;-69
2023/01/27 04:16:40;;;;;;;8.77;6.88;;;;;;;;;;4978019;28;20574;-70
2023/01/27 04:19:08;;;;;;;10.45;7.03;;;;;;;;;;4977454;28;20718;-69
2023/01/27 04:21:36;;;;;;;10.73;6.85;;;;;;;;;;4977575;28;20740;-68
2023/01/27 04:24:03;;;;;;;10.55;6.93;;;;;;;;;;4977602;28;20582;-69
2023/01/27 04:26:33;;;;;;;9.93;6.85;;;;;;;;;;4977774;28;20245;-71
2023/01/27 04:29:00;;;;;;;10.05;6.45;;;;;;;;;;4977721;28;20223;-71
2023/01/27 04:31:27;;;;;;;10.40;6.15;;;;;;;;;;4977592;28;20258;-70
2023/01/27 04:33:54;;;;;;;10.45;6.72;;;;;;;;;;4977792;28;20199;-70
2023/01/27 04:36:21;;;;;;;8.20;5.07;;;;;;;;;;4977674;28;20216;-70
2023/01/27 04:38:50;;;;;;;7.13;6.00;;;;;;;;;;4977160;28;20231;-70
2023/01/27 04:41:17;;;;;;;8.57;7.15;;;;;;;;;;4977808;28;20204;-70
2023/01/27 04:43:44;;;;;;;8.40;6.75;;;;;;;;;;4977500;28;20207;-69
2023/01/27 04:46:11;;;;;;;8.77;6.53;;;;;;;;;;4977318;28;20211;-69
2023/01/27 04:48:38;;;;;;;9.43;6.55;;;;;;;;;;4977352;28;20223;-70
2023/01/27 04:51:05;;;;;;;10.55;7.55;;;;;;;;;;4976903;28;20721;-68
2023/01/27 04:53:32;;;;;;;8.20;6.75;;;;;;;;;;4977316;28;20234;-70
2023/01/27 04:56:06;;;;;;;10.73;7.05;;;;;;;;;;4977339;28;20199;-70
2023/01/27 04:58:33;;;;;;;9.80;6.80;;;;;;;;;;4976882;28;20730;-73
2023/01/27 05:01:00;;;;;;;9.70;7.32;;;;;;;;;;4977008;28;20714;-72
2023/01/27 05:03:27;;;;;;;11.18;7.35;;;;;;;;;;4977388;28;20214;-74
2023/01/27 05:05:54;;;;;;;8.10;6.63;;;;;;;;;;4976623;28;20208;-73
2023/01/27 05:08:21;;;;;;;11.63;7.28;;;;;;;;;;4976939;28;20254;-73
2023/01/27 05:10:48;;;;;;;11.02;7.28;;;;;;;;;;4976685;28;20567;-73
2023/01/27 05:13:16;;;;;;;8.85;7.32;;;;;;;;;;4976708;28;20211;-73
2023/01/27 05:15:43;;;;;;;10.10;7.05;;;;;;;;;;4977273;28;20207;-73
2023/01/27 05:18:10;;;;;;;8.40;6.32;;;;;;;;;;4976851;28;20227;-72
2023/01/27 05:20:37;;;;;;;8.30;6.40;;;;;;;;;;4977031;28;20199;-72
2023/01/27 05:25:49;;;;;;;7.65;5.80;;;;;;;;;;4977378;28;20642;-72
2023/01/27 05:28:17;;;;;;;7.45;5.55;;;;;;;;;;4977263;28;20230;-71
2023/01/27 05:30:44;;;;;;;6.85;6.10;;;;;;;;;;4977030;28;20223;-74
2023/01/27 05:33:12;;;;;;;6.95;5.72;;;;;;;;;;4977356;28;20211;-75
2023/01/27 05:35:39;;;;;;;6.75;6.05;;;;;;;;;;4979620;28;20214;-74
2023/01/27 05:38:06;;;;;;;5.63;5.13;;;;;;;;;;4980011;28;20319;-75
2023/01/27 05:40:33;;;;;;;9.82;6.50;;;;;;;;;;4980758;28;20215;-74
2023/01/27 05:43:00;;;;;;;7.78;5.97;;;;;;;;;;4977697;28;20714;-75
2023/01/27 05:45:28;;;;;;;7.88;5.68;;;;;;;;;;4976706;28;20200;-72
2023/01/27 05:47:56;;;;;;;7.68;6.03;;;;;;;;;;4976256;28;20223;-73
2023/01/27 05:50:23;;;;;;;10.93;8.23;;;;;;;;;;4976339;28;20285;-72
2023/01/27 05:52:50;;;;;;;8.20;6.97;;;;;;;;;;4976348;28;20207;-73
2023/01/27 05:55:17;;;;;;;7.20;6.28;;;;;;;;;;4976200;28;20230;-72
2023/01/27 05:57:44;;;;;;;10.48;7.32;;;;;;;;;;4976243;28;20234;-74
2023/01/27 06:00:11;;;;;;;6.68;5.30;;;;;;;;;;4976362;28;20203;-74
2023/01/27 06:02:40;;;;;;;6.22;5.38;;;;;;;;;;4976079;28;20575;-74
2023/01/27 06:05:07;;;;;;;7.15;5.65;;;;;;;;;;4975859;28;20687;-75
2023/01/27 06:07:34;;;;;;;11.30;7.95;;;;;;;;;;4975869;28;20231;-74
2023/01/27 06:10:01;;;;;;;8.27;6.28;;;;;;;;;;4975929;28;20200;-74
2023/01/27 06:12:28;;;;;;;7.28;5.63;;;;;;;;;;4976007;28;20228;-72
2023/01/27 06:14:58;;;;;;;7.47;5.30;;;;;;;;;;4976013;28;20210;-72
2023/01/27 06:17:25;;;;;;;7.20;5.00;;;;;;;;;;4975347;28;20212;-72
2023/01/27 06:19:53;;;;;;;6.57;5.38;;;;;;;;;;4975863;28;20207;-70
2023/01/27 06:22:20;;;;;;;7.82;5.68;;;;;;;;;;4975821;28;20199;-70
2023/01/27 06:24:47;;;;;;;6.57;5.05;;;;;;;;;;4975430;28;20667;-70
2023/01/27 06:27:15;;;;;;;6.68;5.20;;;;;;;;;;4975696;28;20230;-70
2023/01/27 06:29:42;;;;;;;5.82;5.15;;;;;;;;;;4975824;28;20203;-70
2023/01/27 06:32:09;;;;;;;6.55;4.65;;;;;;;;;;4975719;28;20230;-70
2023/01/27 06:34:36;;;;;;;6.35;4.93;;;;;;;;;;4975620;28;20212;-70
2023/01/27 06:37:05;;;;;;;6.55;4.97;;;;;;;;;;4975402;28;20571;-70
2023/01/27 06:39:32;;;;;;;6.20;4.70;;;;;;;;;;4997745;23;20219;-71
2023/01/27 06:41:59;;;;;;;6.93;4.80;;;;;;;;;;4975272;28;20203;-71
2023/01/27 06:44:26;;;;;;;5.18;4.55;;;;;;;;;;4975203;28;20199;-71
2023/01/27 06:46:53;;;;;;;5.00;4.50;;;;;;;;;;4975130;28;20203;-71
2023/01/27 06:49:20;;;;;;;7.63;5.60;;;;;;;;;;4975118;28;20290;-71
2023/01/27 06:51:47;;;;;;;6.68;5.00;;;;;;;;;;4975143;28;20220;-71
2023/01/27 06:54:15;;;;;;;5.78;4.65;;;;;;;;;;4975151;28;20258;-71
2023/01/27 06:56:42;;;;;;;4.68;4.28;;;;;;;;;;4974730;28;20235;-71
2023/01/27 06:59:09;;;;;;;4.78;4.38;;;;;;;;;;4974922;28;20219;-71
2023/01/27 07:01:36;;;;;;;5.72;4.93;;;;;;;;;;4974966;28;20199;-72
2023/01/27 07:04:03;;;;;;;5.28;4.85;;;;;;;;;;4974581;28;20674;-72
2023/01/27 07:06:30;;;;;;;6.55;5.25;;;;;;;;;;4974884;28;20199;-71
2023/01/27 07:08:57;;;;;;;7.60;5.07;;;;;;;;;;4974800;28;20282;-71
2023/01/27 07:11:26;;;;;;;7.47;5.60;;;;;;;;;;4974456;28;20578;-71
2023/01/27 07:13:53;;;;;;;6.25;5.30;;;;;;;;;;4974703;28;20210;-71
2023/01/27 07:16:20;;;;;;;7.03;6.10;;;;;;;;;;4974801;28;20203;-71
2023/01/27 07:18:47;;;;;;;6.53;5.20;;;;;;;;;;4974667;28;20278;-72
2023/01/27 07:21:14;;;;;;;6.25;5.57;;;;;;;;;;4974800;28;20544;-71
2023/01/27 07:23:41;;;;;;;6.45;5.75;;;;;;;;;;4974722;28;20207;-71
2023/01/27 07:26:08;;;;;;;6.40;5.55;;;;;;;;;;4974829;28;20265;-71
2023/01/27 07:28:36;;;;;;;5.55;4.80;;;;;;;;;;4977380;28;20710;-71
2023/01/27 07:31:03;;;;;;;6.68;5.50;;;;;;;;;;4978518;28;20199;-71
2023/01/27 07:33:30;;;;;;;5.65;5.03;;;;;;;;;;4978575;28;20203;-71
2023/01/27 07:35:57;;;;;;;10.65;5.65;;;;;;;;;;4978605;28;20234;-71
2023/01/27 07:38:24;;;;;;;6.28;5.68;;;;;;;;;;4978237;28;20242;-71
2023/01/27 07:40:52;;;;;;;7.03;5.22;;;;;;;;;;4978487;28;20213;-71
2023/01/27 07:43:19;;;;;;;5.93;4.97;;;;;;;;;;4978395;28;20203;-71
2023/01/27 07:45:47;;;;;;;8.18;6.80;;;;;;;;;;4978373;28;20211;-71
2023/01/27 07:48:15;;;;;;;7.68;5.88;;;;;;;;;;4978346;28;20255;-71
2023/01/27 07:50:42;;;;;;;7.93;6.50;;;;;;;;;;4978304;28;20314;-72
2023/01/27 07:53:10;;;;;;;9.00;6.55;;;;;;;;;;4978261;28;20253;-73
2023/01/27 07:55:37;;;;;;;12.80;8.38;;;;;;;;;;4978160;28;20294;-72
2023/01/27 07:58:05;;;;;;;11.88;7.85;;;;;;;;;;4978069;28;20231;-71
2023/01/27 08:00:32;;;;;;;10.43;6.82;;;;;;;;;;4977795;28;20733;-71
2023/01/27 08:03:01;;;;;;;9.18;6.93;;;;;;;;;;4978048;28;20210;-71
2023/01/27 08:05:29;;;;;;;9.65;6.70;;;;;;;;;;4977998;28;20207;-71
2023/01/27 08:07:57;;;;;;;8.52;6.47;;;;;;;;;;4977935;28;20224;-72
2023/01/27 08:10:24;;;;;;;9.93;6.25;;;;;;;;;;4978083;28;20250;-72
2023/01/27 08:12:51;;;;;;;9.15;5.97;;;;;;;;;;4977604;28;20699;-72
2023/01/27 08:15:18;;;;;;;7.32;6.57;;;;;;;;;;4977971;28;20215;-71
2023/01/27 08:17:45;;;;;;;9.15;6.75;;;;;;;;;;4977946;28;20210;-71
2023/01/27 08:20:16;;;;;;;11.43;6.93;;;;;;;;;;4978309;28;20207;-71
2023/01/27 08:22:43;;;;;;;7.85;6.63;;;;;;;;;;4978468;28;20184;-71
2023/01/27 08:25:10;;;;;;;10.48;6.90;;;;;;;;;;4977532;28;20586;-72
2023/01/27 08:27:37;;;;;;;8.30;6.78;;;;;;;;;;4977256;28;20700;-71
2023/01/27 08:30:04;;;;;;;13.52;6.93;;;;;;;;;;4977587;28;20203;-71
2023/01/27 08:32:31;;;;;;;10.10;6.80;;;;;;;;;;4977114;28;20594;-72
2023/01/27 08:34:58;;;;;;;7.63;6.15;;;;;;;;;;4977502;28;20203;-71
2023/01/27 08:37:27;;;;;;;8.02;6.22;;;;;;;;;;4977414;28;20207;-71
2023/01/27 08:39:54;;;;;;;9.45;7.35;;;;;;;;;;4976113;28;20231;-71
2023/01/27 08:42:21;;;;;;;8.05;6.43;;;;;;;;;;4977395;28;20199;-71
2023/01/27 08:44:48;;;;;;;7.22;6.38;;;;;;;;;;4977369;28;20307;-71
2023/01/27 08:47:15;;;;;;;9.75;7.90;;;;;;;;;;4977264;28;20211;-71
2023/01/27 08:49:42;;;;;;;10.15;7.82;;;;;;;;;;4977179;28;20227;-71
2023/01/27 08:52:09;;;;;;;14.15;8.38;;;;;;;;;;4977206;28;20255;-71
2023/01/27 08:54:38;;;;;;;13.30;9.25;;;;;;;;;;4977702;28;20219;-71
2023/01/27 08:57:05;;;;;;;8.30;7.43;;;;;;;;;;4977121;28;20203;-71
2023/01/27 08:59:32;;;;;;;8.70;7.38;;;;;;;;;;4976650;28;20600;-71
2023/01/27 09:01:59;;;;;;;12.15;7.28;;;;;;;;;;4976768;28;20659;-71
2023/01/27 09:04:28;;;;;;;12.85;8.30;;;;;;;;;;4976938;28;20215;-71
2023/01/27 09:06:55;;;;;;;11.18;8.27;;;;;;;;;;4976924;28;20295;-71
2023/01/27 09:09:22;;;;;;;6.07;5.10;;;;;;;;;;4976523;28;20706;-71
2023/01/27 09:11:50;;;;;;;10.13;6.30;;;;;;;;;;4976785;28;20223;-71
2023/01/27 09:14:18;;;;;;;10.63;7.50;;;;;;;;;;4976802;28;20208;-72
2023/01/27 09:16:45;;;;;;;9.38;6.35;;;;;;;;;;4976795;28;20203;-72
2023/01/27 09:19:14;;;;;;;9.20;6.35;;;;;;;;;;4976723;28;20223;-72
2023/01/27 09:21:41;;;;;;;7.65;6.63;;;;;;;;;;4976382;28;20211;-72
2023/01/27 09:24:08;;;;;;;7.80;6.20;;;;;;;;;;4976721;28;20207;-72
2023/01/27 09:26:35;;;;;;;6.47;5.38;;;;;;;;;;4976613;28;20258;-72
2023/01/27 09:29:03;;;;;;;5.90;5.10;;;;;;;;;;4976471;28;20227;-71
2023/01/27 09:31:30;;;;;;;5.53;4.93;;;;;;;;;;4976080;28;20210;-72
2023/01/27 09:33:57;;;;;;;5.05;4.60;;;;;;;;;;4976199;28;20271;-72
2023/01/27 09:36:24;;;;;;;5.63;5.13;;;;;;;;;;4976327;28;20207;-72
2023/01/27 09:38:55;;;;;;;5.13;4.68;;;;;;;;;;4976024;28;20238;-71
2023/01/27 09:41:29;;;;;;;6.13;4.78;;;;;;;;;;4976327;28;20187;-71
2023/01/27 09:44:04;;;;;;;9.15;6.32;;;;;;;;;;4976128;28;20683;-71
2023/01/27 09:46:42;;;;;;;16.60;9.07;;;;;;;;;;4976278;28;20187;-72
2023/01/27 09:49:19;;;;;;;7.63;5.97;;;;;;;;;;4976097;28;20223;-73
2023/01/27 09:51:51;;;;;;;6.88;4.88;;;;;;;;;;4975085;28;20198;-73
2023/01/27 09:54:25;;;;;;;5.00;4.57;;;;;;;;;;4976097;28;20188;-73
2023/01/27 09:56:57;;;;;;;6.43;5.50;;;;;;;;;;4976060;28;20278;-73
2023/01/27 09:59:30;;;;;;;6.15;5.57;;;;;;;;;;4975943;28;20227;-71
2023/01/27 10:02:03;;;;;;;5.90;4.47;;;;;;;;;;4976011;28;20219;-71
2023/01/27 10:04:48;;;;;;;6.25;5.03;;;;;;;;;;4975967;28;20195;-71
2023/01/27 10:07:22;;;;;;;7.35;4.20;;;;;;;;;;4975472;28;20210;-71
2023/01/27 10:09:54;;;;;;;5.30;4.80;;;;;;;;;;4975796;28;20226;-71
2023/01/27 10:12:29;;;;;;;4.97;4.47;;;;;;;;;;4975901;28;20211;-71
2023/01/27 10:15:00;;;;;;;6.70;5.93;;;;;;;;;;4975569;28;20627;-70
2023/01/27 10:17:35;;;;;;;6.97;5.50;;;;;;;;;;4975831;28;20247;-70
2023/01/27 10:20:14;;;;;;;6.40;5.80;;;;;;;;;;4975743;28;20187;-70
2023/01/27 10:22:47;;;;;;;5.65;5.15;;;;;;;;;;4975738;28;20203;-70
2023/01/27 10:25:20;;;;;;;6.35;5.15;;;;;;;;;;4975315;28;20559;-70
2023/01/27 10:27:48;;;;;;;5.80;5.28;;;;;;;;;;4975458;28;20270;-71
2023/01/27 10:30:21;;;;;;;6.47;5.65;;;;;;;;;;4975198;28;20574;-71
2023/01/27 10:32:54;;;;;;;6.72;5.07;;;;;;;;;;4975038;28;20699;-70
2023/01/27 10:35:26;;;;;;;9.07;6.85;;;;;;;;;;4975166;28;20594;-72
2023/01/27 10:37:58;;;;;;;7.47;5.72;;;;;;;;;;4975194;28;20195;-72
2023/01/27 10:40:31;;;;;;;7.50;5.57;;;;;;;;;;4975365;28;20283;-72
2023/01/27 10:43:03;;;;;;;6.20;5.45;;;;;;;;;;4975299;28;20186;-72
2023/01/27 10:45:36;;;;;;;6.20;5.40;;;;;;;;;;4975310;28;20187;-71
2023/01/27 10:48:11;;;;;;;6.38;5.45;;;;;;;;;;4974827;28;20694;-72
2023/01/27 10:50:39;;;;;;;7.22;6.53;;;;;;;;;;4974931;28;20558;-72
2023/01/27 10:53:10;;;;;;;10.27;7.80;;;;;;;;;;4974763;28;20714;-72
2023/01/27 10:55:38;;;;;;;8.98;6.78;;;;;;;;;;4975124;28;20187;-72
2023/01/27 10:58:07;;;;;;;14.05;9.52;;;;;;;;;;4974675;28;20631;-72
2023/01/27 11:00:40;;;;;;;9.85;7.45;;;;;;;;;;4975063;28;20262;-72
2023/01/27 11:03:12;;;;;;;11.07;7.85;;;;;;;;;;4974717;28;20202;-72
2023/01/27 11:05:41;;;;;;;7.65;6.85;;;;;;;;;;4974975;28;20199;-72
2023/01/27 11:08:12;;;;;;;10.25;7.55;;;;;;;;;;4984085;28;20230;-72
2023/01/27 11:11:42;;;;;;;7.03;5.70;;;;;;;;;;4990427;28;20243;-72
2023/01/27 11:13:31;;;;;;;8.00;6.00;;;;;;;;;;4993551;28;20246;-72
2023/01/27 11:15:58;;;;;;;8.75;6.10;;;;;;;;;;4993730;28;20195;-72
2023/01/27 11:18:28;;;;;;;8.35;6.00;;;;;;;;;;4994616;28;20222;-72
2023/01/27 11:20:58;;;;;;;6.57;5.38;;;;;;;;;;4992730;28;20188;-72
2023/01/27 11:23:28;;;;;;;6.45;5.65;;;;;;;;;;4977034;28;20250;-72
2023/01/27 11:25:58;;;;;;;7.93;5.65;;;;;;;;;;4974845;28;20230;-72
2023/01/27 11:28:29;;;;;;;8.15;6.47;;;;;;;;;;4975095;28;20262;-73
2023/01/27 11:31:02;;;;;;;8.00;5.72;;;;;;;;;;4975366;28;20631;-72
2023/01/27 11:33:36;;;;;;;7.55;6.32;;;;;;;;;;4976929;28;20227;-71
2023/01/27 11:36:03;;;;;;;8.23;6.47;;;;;;;;;;4978082;28;20266;-72
2023/01/27 11:38:30;;;;;;;8.30;6.13;;;;;;;;;;4977679;28;20230;-72
2023/01/27 11:40:57;;;;;;;5.88;5.15;;;;;;;;;;4975026;28;20207;-72
2023/01/27 11:43:25;;;;;;;6.00;5.38;;;;;;;;;;4974646;28;20206;-71
2023/01/27 11:45:53;;;;;;;5.13;4.57;;;;;;;;;;4975002;28;20200;-72
2023/01/27 11:48:20;;;;;;;7.38;5.40;;;;;;;;;;4975910;28;20230;-72
2023/01/27 11:50:48;;;;;;;7.43;5.18;;;;;;;;;;4974585;28;20211;-71
2023/01/27 11:53:21;;;;;;;5.63;5.05;;;;;;;;;;4974128;28;20690;-70
2023/01/27 11:55:51;;;;;;;6.50;5.45;;;;;;;;;;4974456;28;20188;-70
2023/01/27 11:58:22;;;;;;;5.10;4.60;;;;;;;;;;4974341;28;20223;-70
2023/01/27 12:00:52;;;;;;;5.20;4.68;;;;;;;;;;4974459;28;20187;-70
2023/01/27 12:03:21;;;;;;;6.07;4.93;;;;;;;;;;4974483;28;20200;-70
2023/01/27 12:05:52;;;;;;;6.53;5.40;;;;;;;;;;4974406;28;20206;-70
2023/01/27 12:08:34;;;;;;;6.60;5.80;;;;;;;;;;4974508;28;20246;-70
2023/01/27 12:11:16;;;;;;;7.32;5.88;;;;;;;;;;4974556;28;20187;-70
2023/01/27 12:13:48;;;;;;;7.93;6.25;;;;;;;;;;4974426;28;20203;-70
2023/01/27 12:16:15;;;;;;;9.65;7.03;;;;;;;;;;4977890;28;20214;-70
2023/01/27 12:18:48;;;;;;;12.00;7.47;;;;;;;;;;4977797;28;20222;-70
2023/01/27 12:21:17;;;;;;;10.60;7.28;;;;;;;;;;4977956;28;20223;-70
2023/01/27 12:23:48;;;;;;;11.80;8.10;;;;;;;;;;4977924;28;20199;-70
2023/01/27 12:26:15;;;;;;;11.65;7.63;;;;;;;;;;4977862;28;20187;-71
2023/01/27 12:28:43;;;;;;;11.40;7.68;;;;;;;;;;4977316;28;20598;-70
2023/01/27 12:31:11;;;;;;;11.93;7.63;;;;;;;;;;4977635;28;20611;-71
2023/01/27 12:33:40;;;;;;;12.20;8.05;;;;;;;;;;4978434;28;20227;-71
2023/01/27 12:36:12;;;;;;;10.63;7.97;;;;;;;;;;4978017;28;20215;-71
2023/01/27 12:38:45;;;;;;;10.18;7.95;;;;;;;;;;4977906;28;20290;-71
2023/01/27 12:41:13;;;;;;;14.27;8.45;;;;;;;;;;4977665;28;20194;-72
2023/01/27 12:43:50;;;;;;;10.23;8.20;;;;;;;;;;4977129;28;20667;-72
2023/01/27 12:46:20;;;;;;;9.63;7.47;;;;;;;;;;4977208;28;20661;-72
2023/01/27 12:48:49;;;;;;;12.05;8.48;;;;;;;;;;4977134;28;20729;-72
2023/01/27 12:51:19;;;;;;;9.98;6.93;;;;;;;;;;4977392;28;20237;-72
2023/01/27 12:53:48;;;;;;;9.85;7.78;;;;;;;;;;4977236;28;20220;-72
2023/01/27 12:56:17;;;;;;;10.18;7.20;;;;;;;;;;4977175;28;20207;-72
2023/01/27 12:58:45;;;;;;;10.02;7.45;;;;;;;;;;4977044;28;20231;-72
2023/01/27 13:01:23;;;;;;;11.52;7.30;;;;;;;;;;4978287;28;20207;-72
2023/01/27 13:03:52;;;;;;;12.43;8.00;;;;;;;;;;4981112;28;20733;-72
2023/01/27 13:06:21;;;;;;;12.10;8.75;;;;;;;;;;4980665;28;20214;-72
2023/01/27 13:08:51;;;;;;;11.90;8.55;;;;;;;;;;4981347;28;20227;-72
2023/01/27 13:11:21;;;;;;;9.82;7.68;;;;;;;;;;4981778;28;20207;-72
2023/01/27 13:13:50;;;;;;;12.88;8.60;;;;;;;;;;4981657;28;20207;-72
2023/01/27 13:16:18;;;;;;;12.25;8.52;;;;;;;;;;4981048;28;20211;-72
2023/01/27 13:18:53;;;;;;;9.82;7.10;;;;;;;;;;4979215;28;20870;-72
2023/01/27 13:21:22;;;;;;;11.27;8.13;;;;;;;;;;4977389;28;20187;-71
2023/01/27 13:23:51;;;;;;;10.27;7.35;;;;;;;;;;4979040;28;20239;-71
2023/01/27 13:26:20;;;;;;;12.30;8.15;;;;;;;;;;4981784;28;20210;-73
2023/01/27 13:28:51;;;;;;;9.73;7.50;;;;;;;;;;4981465;28;20778;-73
2023/01/27 13:31:20;;;;;;;12.43;8.90;;;;;;;;;;4981891;28;20742;-73
2023/01/27 13:33:49;;;;;;;10.90;8.77;;;;;;;;;;4980909;28;20254;-73
2023/01/27 13:36:21;;;;;;;10.82;7.95;;;;;;;;;;4981747;28;20203;-74
2023/01/27 13:38:53;;;;;;;10.00;8.57;;;;;;;;;;4982102;28;20270;-74
2023/01/27 13:41:23;;;;;;;10.77;8.50;;;;;;;;;;4982041;28;20191;-74
2023/01/27 13:43:53;;;;;;;12.02;7.97;;;;;;;;;;4981261;28;20195;-74
2023/01/27 13:46:24;;;;;;;10.77;7.78;;;;;;;;;;4981018;28;20188;-74
2023/01/27 13:48:54;;;;;;;9.38;7.43;;;;;;;;;;4980989;28;20232;-73
2023/01/27 13:51:23;;;;;;;11.27;7.72;;;;;;;;;;4981688;28;20230;-74
2023/01/27 13:53:57;;;;;;;9.80;7.93;;;;;;;;;;4981866;28;20295;-74
2023/01/27 13:56:31;;;;;;;12.68;8.73;;;;;;;;;;4981413;28;20282;-72
2023/01/27 13:59:02;;;;;;;13.50;9.15;;;;;;;;;;4976557;28;20224;-72
2023/01/27 14:01:38;;;;;;;13.55;8.88;;;;;;;;;;4976207;28;20188;-72
2023/01/27 14:04:23;;;;;;;9.88;7.55;;;;;;;;;;4975999;28;20186;-72
2023/01/27 14:06:56;;;;;;;10.98;8.27;;;;;;;;;;4976148;28;20192;-72
2023/01/27 14:09:33;;;;;;;11.63;9.07;;;;;;;;;;4975823;28;20243;-72
2023/01/27 14:12:04;;;;;;;13.65;8.95;;;;;;;;;;4975820;28;20638;-72
2023/01/27 14:14:37;;;;;;;13.98;9.20;;;;;;;;;;4975781;28;20666;-72
2023/01/27 14:17:15;;;;;;;11.55;8.10;;;;;;;;;;4975688;28;20202;-72
2023/01/27 14:19:47;;;;;;;15.25;9.23;;;;;;;;;;4975827;28;20231;-70
2023/01/27 14:22:18;;;;;;;13.70;9.07;;;;;;;;;;4975689;28;20194;-70
2023/01/27 14:24:48;;;;;;;15.00;9.85;;;;;;;;;;4975288;28;20625;-70
2023/01/27 14:27:18;;;;;;;12.73;9.10;;;;;;;;;;4975551;28;20198;-70
2023/01/27 14:29:47;;;;;;;15.20;9.77;;;;;;;;;;4975440;28;20725;-70
2023/01/27 14:32:19;;;;;;;16.98;10.50;;;;;;;;;;4975404;28;20199;-70
2023/01/27 14:34:56;;;;;;;12.90;9.40;;;;;;;;;;4975346;28;20211;-70
2023/01/27 14:37:26;;;;;;;16.88;10.50;;;;;;;;;;4974821;28;20206;-70
2023/01/27 14:40:00;;;;;;;16.52;10.48;;;;;;;;;;4975005;28;20238;-71
2023/01/27 14:42:31;;;;;;;17.85;10.38;;;;;;;;;;4975454;28;20226;-71
2023/01/27 14:45:01;;;;;;;21.27;11.50;;;;;;;;;;4975541;28;20234;-71
2023/01/27 14:47:32;;;;;;;21.05;12.82;;;;;;;;;;4975370;28;20187;-71
2023/01/27 14:50:08;;;;;;;19.40;12.15;;;;;;;;;;4974845;28;20733;-71
2023/01/27 14:52:43;;;;;;;17.95;10.77;;;;;;;;;;4975098;28;20631;-71
2023/01/27 14:55:24;;;;;;;17.67;11.25;;;;;;;;;;4975172;28;20327;-71
2023/01/27 14:57:58;;;;;;;23.13;12.55;;;;;;;;;;4962513;28;20210;-71
2023/01/27 15:00:35;;;;;;;15.45;9.27;;;;;;;;;;4975083;28;20192;-71
2023/01/27 15:03:09;;;;;;;16.52;10.52;;;;;;;;;;4957876;28;20722;-71
2023/01/27 15:05:40;;;;;;;15.70;10.27;;;;;;;;;;4975135;28;20547;-71
2023/01/27 15:08:12;;;;;;;17.23;9.43;;;;;;;;;;4975025;28;20234;-71
2023/01/27 15:10:42;;;;;;;14.23;9.07;;;;;;;;;;4975093;28;20195;-71
2023/01/27 15:13:29;;;;;;;16.38;9.05;;;;;;;;;;4974873;28;20640;-71
2023/01/27 15:16:19;;;;;;;11.60;8.43;;;;;;;;;;4974988;28;20210;-71
2023/01/27 15:19:01;;;;;;;15.77;8.68;;;;;;;;;;4975130;28;20230;-71
2023/01/27 15:21:49;;;;;;;12.73;8.80;;;;;;;;;;4974403;28;20531;-72
2023/01/27 15:24:27;;;;;;;10.10;7.30;;;;;;;;;;4950196;28;20226;-71
2023/01/27 15:26:54;;;;;;;11.32;7.88;;;;;;;;;;4974514;28;20662;-71